Airfield :
LOGIN :

Register | Disclaimer

   EN    FR    IT 

 










Legend :    VFR   Marginal VFR   IFR   Intensive IFR   Very Intensive IFR
Visi :
Ceiling :
>= 8 km
>= 3000ft
5 to 8 km
1000 to 3000 ft
1500m to 5 km
500 to 1000 ft
800 to 1500m
200 to 500 ft
< 800m
< 200 ft
Symbols :   Thunderstorms  Fog  Heavy snow  Heavy precipitations  Wind > 20 kt
SIGMETs :     Misc.  Thunderstorms  Icing  Turbulence  Mountain Waves  Volcanic Ashes






- Airport Elevation : 219 ft
- IATA code : DNR


LFRD - Dinard

CURRENT METAR :
  • 051930Z AUTO 24005KT CAVOK 22/14 Q1015 NOSIG

EXPIRED METARs :
  • 051900Z AUTO 24006KT CAVOK 23/15 Q1015 NOSIG
  • 051830Z AUTO 21008KT CAVOK 24/15 Q1014 NOSIG
  • 051800Z AUTO 22011KT CAVOK 25/15 Q1014 NOSIG
  • 051730Z AUTO 23011KT 200V260 CAVOK 25/15 Q1014 NOSIG
  • 051700Z AUTO 22012KT CAVOK 26/15 Q1014 NOSIG
  • 051630Z AUTO 22012KT 190V250 9999 FEW046 25/15 Q1014 NOSIG

TAF AMD TAF LFRD
Valid from the 05 at 18:00 until the 06 at 18:00 UTC


051740Z 0518/0618 22010KT CAVOK
BECMG 0519/0521 22005KT
BECMG 0601/0603 3000 BR
PROB40
TEMPO 0603/0606 0400 FG VV///
PROB40
TEMPO 0606/0608 BKN004
BECMG 0606/0608 9999 NSW
TEMPO 0615/0618 02008KT
ATIS : +33 2 99 16 81 50



MET'MAP, your aeronautical weather chart ! - Copyright ORBIFLY December 2007 - Disclaimer

ORBIFLY MET'MAP TEAM :

Programming & Development : Alexandra Zaïnal
Concept & original design : Baudouin d'Aumeries
Assistance for programming : Marc-Olivier Méhu
Technical & hardware support : Manuel Goepfert

Contact : metmap@orbifly.com




SOURCES & CREDITS :

   NOAA